sensor_id;sensor_type;location;lat;lon;timestamp;P1;durP1;ratioP1;P2;durP2;ratioP2
5912;SDS011;2982;42.684;23.356;2023-04-09T00:01:00;12.40;;;11.13;;
5912;SDS011;2982;42.684;23.356;2023-04-09T00:03:26;12.30;;;11.00;;
5912;SDS011;2982;42.684;23.356;2023-04-09T00:05:52;13.83;;;12.03;;
5912;SDS011;2982;42.684;23.356;2023-04-09T00:08:17;13.27;;;11.80;;
5912;SDS011;2982;42.684;23.356;2023-04-09T00:10:42;12.60;;;11.40;;
5912;SDS011;2982;42.684;23.356;2023-04-09T00:13:08;11.70;;;10.70;;
5912;SDS011;2982;42.684;23.356;2023-04-09T00:15:33;12.47;;;11.20;;
5912;SDS011;2982;42.684;23.356;2023-04-09T00:17:58;12.90;;;11.13;;
5912;SDS011;2982;42.684;23.356;2023-04-09T00:20:23;13.10;;;11.77;;
5912;SDS011;2982;42.684;23.356;2023-04-09T00:22:49;12.17;;;10.97;;
5912;SDS011;2982;42.684;23.356;2023-04-09T00:25:14;12.13;;;10.67;;
5912;SDS011;2982;42.684;23.356;2023-04-09T00:27:39;12.27;;;10.37;;
5912;SDS011;2982;42.684;23.356;2023-04-09T00:30:05;12.67;;;11.27;;
5912;SDS011;2982;42.684;23.356;2023-04-09T00:32:31;11.73;;;10.70;;
5912;SDS011;2982;42.684;23.356;2023-04-09T00:34:56;12.33;;;11.03;;
5912;SDS011;2982;42.684;23.356;2023-04-09T00:37:21;11.93;;;10.77;;
5912;SDS011;2982;42.684;23.356;2023-04-09T00:39:46;12.47;;;11.20;;
5912;SDS011;2982;42.684;23.356;2023-04-09T00:42:12;12.17;;;10.93;;
5912;SDS011;2982;42.684;23.356;2023-04-09T00:44:37;10.67;;;9.77;;
5912;SDS011;2982;42.684;23.356;2023-04-09T00:47:02;12.40;;;11.30;;
5912;SDS011;2982;42.684;23.356;2023-04-09T00:49:27;12.97;;;11.57;;
5912;SDS011;2982;42.684;23.356;2023-04-09T00:51:53;14.83;;;10.83;;
5912;SDS011;2982;42.684;23.356;2023-04-09T00:54:18;11.57;;;10.37;;
5912;SDS011;2982;42.684;23.356;2023-04-09T00:56:44;10.97;;;10.07;;
5912;SDS011;2982;42.684;23.356;2023-04-09T00:59:10;10.70;;;9.70;;
5912;SDS011;2982;42.684;23.356;2023-04-09T01:01:35;10.83;;;9.70;;
5912;SDS011;2982;42.684;23.356;2023-04-09T01:04:00;10.53;;;9.53;;
5912;SDS011;2982;42.684;23.356;2023-04-09T01:06:44;10.33;;;9.43;;
5912;SDS011;2982;42.684;23.356;2023-04-09T01:17:35;10.27;;;9.23;;
5912;SDS011;2982;42.684;23.356;2023-04-09T01:20:12;9.68;;;8.75;;
5912;SDS011;2982;42.684;23.356;2023-04-09T01:28:32;9.37;;;8.50;;
5912;SDS011;2982;42.684;23.356;2023-04-09T01:31:06;9.70;;;8.87;;
5912;SDS011;2982;42.684;23.356;2023-04-09T01:33:35;8.93;;;8.25;;
5912;SDS011;2982;42.684;23.356;2023-04-09T01:36:02;9.30;;;8.60;;
5912;SDS011;2982;42.684;23.356;2023-04-09T01:38:28;9.03;;;8.23;;
5912;SDS011;2982;42.684;23.356;2023-04-09T01:40:54;10.07;;;9.17;;
5912;SDS011;2982;42.684;23.356;2023-04-09T01:43:21;9.93;;;8.93;;
5912;SDS011;2982;42.684;23.356;2023-04-09T01:45:47;9.40;;;8.50;;
5912;SDS011;2982;42.684;23.356;2023-04-09T01:48:14;10.03;;;9.07;;
5912;SDS011;2982;42.684;23.356;2023-04-09T01:50:40;9.07;;;8.27;;
5912;SDS011;2982;42.684;23.356;2023-04-09T01:53:06;10.33;;;9.33;;
5912;SDS011;2982;42.684;23.356;2023-04-09T01:55:31;9.93;;;8.93;;
5912;SDS011;2982;42.684;23.356;2023-04-09T01:57:57;9.60;;;8.80;;
5912;SDS011;2982;42.684;23.356;2023-04-09T02:00:22;10.40;;;9.50;;
5912;SDS011;2982;42.684;23.356;2023-04-09T02:05:26;11.13;;;10.00;;
5912;SDS011;2982;42.684;23.356;2023-04-09T02:07:55;9.80;;;8.83;;
5912;SDS011;2982;42.684;23.356;2023-04-09T02:10:27;11.57;;;10.43;;
5912;SDS011;2982;42.684;23.356;2023-04-09T02:12:55;10.90;;;9.90;;
5912;SDS011;2982;42.684;23.356;2023-04-09T02:15:24;10.33;;;9.37;;
5912;SDS011;2982;42.684;23.356;2023-04-09T02:17:52;10.50;;;9.40;;
5912;SDS011;2982;42.684;23.356;2023-04-09T02:20:18;10.50;;;9.50;;
5912;SDS011;2982;42.684;23.356;2023-04-09T02:22:46;11.53;;;10.27;;
5912;SDS011;2982;42.684;23.356;2023-04-09T02:25:12;10.53;;;9.53;;
5912;SDS011;2982;42.684;23.356;2023-04-09T02:27:38;10.07;;;9.17;;
5912;SDS011;2982;42.684;23.356;2023-04-09T02:30:03;10.20;;;9.30;;
5912;SDS011;2982;42.684;23.356;2023-04-09T02:32:29;11.07;;;10.03;;
5912;SDS011;2982;42.684;23.356;2023-04-09T02:34:54;11.10;;;10.10;;
5912;SDS011;2982;42.684;23.356;2023-04-09T02:37:19;11.00;;;9.90;;
5912;SDS011;2982;42.684;23.356;2023-04-09T02:39:45;10.17;;;9.17;;
5912;SDS011;2982;42.684;23.356;2023-04-09T02:42:10;12.87;;;9.47;;
5912;SDS011;2982;42.684;23.356;2023-04-09T02:44:35;11.73;;;10.53;;
5912;SDS011;2982;42.684;23.356;2023-04-09T02:47:01;11.13;;;9.63;;
5912;SDS011;2982;42.684;23.356;2023-04-09T02:49:26;10.73;;;9.67;;
5912;SDS011;2982;42.684;23.356;2023-04-09T02:51:51;11.07;;;9.90;;
5912;SDS011;2982;42.684;23.356;2023-04-09T02:54:16;11.73;;;9.53;;
5912;SDS011;2982;42.684;23.356;2023-04-09T02:56:42;12.13;;;10.73;;
5912;SDS011;2982;42.684;23.356;2023-04-09T02:59:07;12.43;;;10.97;;
5912;SDS011;2982;42.684;23.356;2023-04-09T03:01:32;12.63;;;10.20;;
5912;SDS011;2982;42.684;23.356;2023-04-09T03:03:58;12.27;;;9.87;;
5912;SDS011;2982;42.684;23.356;2023-04-09T03:06:24;12.00;;;10.77;;
5912;SDS011;2982;42.684;23.356;2023-04-09T03:08:49;12.00;;;10.80;;
5912;SDS011;2982;42.684;23.356;2023-04-09T03:11:15;12.03;;;10.27;;
5912;SDS011;2982;42.684;23.356;2023-04-09T03:13:40;13.10;;;9.80;;
5912;SDS011;2982;42.684;23.356;2023-04-09T03:16:05;13.17;;;10.97;;
5912;SDS011;2982;42.684;23.356;2023-04-09T03:18:31;11.47;;;10.37;;
5912;SDS011;2982;42.684;23.356;2023-04-09T03:20:56;12.03;;;10.83;;
5912;SDS011;2982;42.684;23.356;2023-04-09T03:23:21;11.87;;;10.53;;
5912;SDS011;2982;42.684;23.356;2023-04-09T03:25:46;12.47;;;11.17;;
5912;SDS011;2982;42.684;23.356;2023-04-09T03:28:12;11.67;;;10.30;;
5912;SDS011;2982;42.684;23.356;2023-04-09T03:30:37;11.90;;;10.67;;
5912;SDS011;2982;42.684;23.356;2023-04-09T03:33:02;12.10;;;10.87;;
5912;SDS011;2982;42.684;23.356;2023-04-09T03:35:27;13.70;;;11.73;;
5912;SDS011;2982;42.684;23.356;2023-04-09T03:37:53;14.23;;;11.07;;
5912;SDS011;2982;42.684;23.356;2023-04-09T03:40:18;13.77;;;12.37;;
5912;SDS011;2982;42.684;23.356;2023-04-09T03:42:43;14.27;;;12.23;;
5912;SDS011;2982;42.684;23.356;2023-04-09T03:45:09;13.37;;;11.97;;
5912;SDS011;2982;42.684;23.356;2023-04-09T03:47:34;13.10;;;11.80;;
5912;SDS011;2982;42.684;23.356;2023-04-09T03:50:00;13.50;;;12.00;;
5912;SDS011;2982;42.684;23.356;2023-04-09T03:52:25;13.40;;;12.00;;
5912;SDS011;2982;42.684;23.356;2023-04-09T03:54:50;13.47;;;12.07;;
5912;SDS011;2982;42.684;23.356;2023-04-09T03:57:16;13.40;;;11.37;;
5912;SDS011;2982;42.684;23.356;2023-04-09T03:59:41;14.50;;;12.47;;
5912;SDS011;2982;42.684;23.356;2023-04-09T04:02:06;15.80;;;13.83;;
5912;SDS011;2982;42.684;23.356;2023-04-09T04:04:32;14.77;;;13.23;;
5912;SDS011;2982;42.684;23.356;2023-04-09T04:06:57;14.13;;;12.70;;
5912;SDS011;2982;42.684;23.356;2023-04-09T04:09:22;16.17;;;14.57;;
5912;SDS011;2982;42.684;23.356;2023-04-09T04:11:48;15.57;;;13.70;;
5912;SDS011;2982;42.684;23.356;2023-04-09T04:14:13;17.13;;;14.67;;
5912;SDS011;2982;42.684;23.356;2023-04-09T04:16:39;16.30;;;14.10;;
5912;SDS011;2982;42.684;23.356;2023-04-09T04:19:05;20.03;;;15.40;;
5912;SDS011;2982;42.684;23.356;2023-04-09T04:21:31;20.40;;;16.00;;
5912;SDS011;2982;42.684;23.356;2023-04-09T04:23:56;17.83;;;14.57;;
5912;SDS011;2982;42.684;23.356;2023-04-09T04:26:22;16.97;;;14.43;;
5912;SDS011;2982;42.684;23.356;2023-04-09T04:28:47;19.37;;;15.70;;
5912;SDS011;2982;42.684;23.356;2023-04-09T04:31:12;17.50;;;15.03;;
5912;SDS011;2982;42.684;23.356;2023-04-09T04:33:40;21.27;;;15.20;;
5912;SDS011;2982;42.684;23.356;2023-04-09T04:36:09;17.27;;;14.20;;
5912;SDS011;2982;42.684;23.356;2023-04-09T04:38:36;21.80;;;15.13;;
5912;SDS011;2982;42.684;23.356;2023-04-09T04:41:01;19.93;;;16.07;;
5912;SDS011;2982;42.684;23.356;2023-04-09T04:43:27;20.87;;;15.30;;
5912;SDS011;2982;42.684;23.356;2023-04-09T04:45:53;19.50;;;15.33;;
5912;SDS011;2982;42.684;23.356;2023-04-09T04:48:19;21.47;;;16.47;;
5912;SDS011;2982;42.684;23.356;2023-04-09T04:50:44;22.03;;;14.93;;
5912;SDS011;2982;42.684;23.356;2023-04-09T04:53:10;22.93;;;17.50;;
5912;SDS011;2982;42.684;23.356;2023-04-09T04:55:35;22.67;;;17.00;;
5912;SDS011;2982;42.684;23.356;2023-04-09T04:58:01;24.37;;;18.00;;
5912;SDS011;2982;42.684;23.356;2023-04-09T05:00:26;25.87;;;17.87;;
5912;SDS011;2982;42.684;23.356;2023-04-09T05:02:52;20.90;;;17.50;;
5912;SDS011;2982;42.684;23.356;2023-04-09T05:05:17;25.47;;;17.53;;
5912;SDS011;2982;42.684;23.356;2023-04-09T05:07:42;26.30;;;18.20;;
5912;SDS011;2982;42.684;23.356;2023-04-09T05:10:08;25.97;;;19.37;;
5912;SDS011;2982;42.684;23.356;2023-04-09T05:12:33;23.07;;;18.57;;
5912;SDS011;2982;42.684;23.356;2023-04-09T05:14:59;22.33;;;18.33;;
5912;SDS011;2982;42.684;23.356;2023-04-09T05:17:24;24.87;;;18.40;;
5912;SDS011;2982;42.684;23.356;2023-04-09T05:19:50;21.87;;;17.53;;
5912;SDS011;2982;42.684;23.356;2023-04-09T05:22:18;21.90;;;18.30;;
5912;SDS011;2982;42.684;23.356;2023-04-09T05:24:43;24.63;;;16.80;;
5912;SDS011;2982;42.684;23.356;2023-04-09T05:27:09;21.05;;;15.90;;
5912;SDS011;2982;42.684;23.356;2023-04-09T05:29:34;17.63;;;14.90;;
5912;SDS011;2982;42.684;23.356;2023-04-09T05:32:00;18.60;;;14.47;;
5912;SDS011;2982;42.684;23.356;2023-04-09T05:34:25;16.00;;;13.97;;
5912;SDS011;2982;42.684;23.356;2023-04-09T05:36:51;18.40;;;13.75;;
5912;SDS011;2982;42.684;23.356;2023-04-09T05:39:17;18.37;;;14.17;;
5912;SDS011;2982;42.684;23.356;2023-04-09T05:41:42;15.17;;;13.43;;
5912;SDS011;2982;42.684;23.356;2023-04-09T05:44:07;17.00;;;14.60;;
5912;SDS011;2982;42.684;23.356;2023-04-09T05:46:33;18.42;;;13.98;;
5912;SDS011;2982;42.684;23.356;2023-04-09T05:48:58;18.17;;;13.33;;
5912;SDS011;2982;42.684;23.356;2023-04-09T05:51:23;18.58;;;14.40;;
5912;SDS011;2982;42.684;23.356;2023-04-09T05:53:49;17.00;;;14.45;;
5912;SDS011;2982;42.684;23.356;2023-04-09T05:56:15;16.65;;;13.50;;
5912;SDS011;2982;42.684;23.356;2023-04-09T05:58:40;17.92;;;13.15;;
5912;SDS011;2982;42.684;23.356;2023-04-09T06:01:05;21.70;;;13.90;;
5912;SDS011;2982;42.684;23.356;2023-04-09T06:03:30;19.92;;;14.02;;
5912;SDS011;2982;42.684;23.356;2023-04-09T06:05:56;15.15;;;11.93;;
5912;SDS011;2982;42.684;23.356;2023-04-09T06:08:21;13.23;;;12.02;;
5912;SDS011;2982;42.684;23.356;2023-04-09T06:10:46;15.48;;;12.93;;
5912;SDS011;2982;42.684;23.356;2023-04-09T06:13:12;16.38;;;13.52;;
5912;SDS011;2982;42.684;23.356;2023-04-09T06:15:37;13.70;;;12.27;;
5912;SDS011;2982;42.684;23.356;2023-04-09T06:18:03;13.73;;;12.02;;
5912;SDS011;2982;42.684;23.356;2023-04-09T06:20:28;13.07;;;11.70;;
5912;SDS011;2982;42.684;23.356;2023-04-09T06:22:53;14.30;;;11.45;;
5912;SDS011;2982;42.684;23.356;2023-04-09T06:25:19;14.80;;;12.73;;
5912;SDS011;2982;42.684;23.356;2023-04-09T06:27:44;12.57;;;11.20;;
5912;SDS011;2982;42.684;23.356;2023-04-09T06:30:09;12.90;;;11.60;;
5912;SDS011;2982;42.684;23.356;2023-04-09T06:32:35;11.43;;;10.13;;
5912;SDS011;2982;42.684;23.356;2023-04-09T06:35:00;12.38;;;10.75;;
5912;SDS011;2982;42.684;23.356;2023-04-09T06:37:26;11.98;;;10.88;;
5912;SDS011;2982;42.684;23.356;2023-04-09T06:39:51;12.73;;;11.52;;
5912;SDS011;2982;42.684;23.356;2023-04-09T06:42:16;12.57;;;11.38;;
5912;SDS011;2982;42.684;23.356;2023-04-09T06:44:41;11.93;;;10.73;;
5912;SDS011;2982;42.684;23.356;2023-04-09T06:47:07;12.68;;;11.43;;
5912;SDS011;2982;42.684;23.356;2023-04-09T06:49:32;12.10;;;11.05;;
5912;SDS011;2982;42.684;23.356;2023-04-09T06:51:57;11.88;;;10.65;;
5912;SDS011;2982;42.684;23.356;2023-04-09T06:54:22;14.65;;;11.43;;
5912;SDS011;2982;42.684;23.356;2023-04-09T06:56:48;12.13;;;11.02;;
5912;SDS011;2982;42.684;23.356;2023-04-09T06:59:13;10.43;;;9.60;;
5912;SDS011;2982;42.684;23.356;2023-04-09T07:01:38;10.90;;;9.80;;
5912;SDS011;2982;42.684;23.356;2023-04-09T07:04:04;11.57;;;10.50;;
5912;SDS011;2982;42.684;23.356;2023-04-09T07:06:29;10.55;;;9.68;;
5912;SDS011;2982;42.684;23.356;2023-04-09T07:08:54;11.90;;;9.75;;
5912;SDS011;2982;42.684;23.356;2023-04-09T07:11:20;11.50;;;10.27;;
5912;SDS011;2982;42.684;23.356;2023-04-09T07:13:45;11.73;;;10.70;;
5912;SDS011;2982;42.684;23.356;2023-04-09T07:16:10;11.75;;;10.70;;
5912;SDS011;2982;42.684;23.356;2023-04-09T07:18:36;10.60;;;9.50;;
5912;SDS011;2982;42.684;23.356;2023-04-09T07:21:01;10.98;;;9.88;;
5912;SDS011;2982;42.684;23.356;2023-04-09T07:23:26;10.15;;;9.25;;
5912;SDS011;2982;42.684;23.356;2023-04-09T07:25:52;8.15;;;7.45;;
5912;SDS011;2982;42.684;23.356;2023-04-09T07:28:17;8.65;;;7.95;;
5912;SDS011;2982;42.684;23.356;2023-04-09T07:30:42;9.35;;;8.48;;
5912;SDS011;2982;42.684;23.356;2023-04-09T07:33:07;10.38;;;9.18;;
5912;SDS011;2982;42.684;23.356;2023-04-09T07:35:33;9.57;;;8.52;;
5912;SDS011;2982;42.684;23.356;2023-04-09T07:37:58;7.82;;;7.03;;
5912;SDS011;2982;42.684;23.356;2023-04-09T07:40:24;7.40;;;6.40;;
5912;SDS011;2982;42.684;23.356;2023-04-09T07:42:49;8.60;;;7.90;;
5912;SDS011;2982;42.684;23.356;2023-04-09T07:45:14;8.05;;;7.45;;
5912;SDS011;2982;42.684;23.356;2023-04-09T07:47:40;8.85;;;8.15;;
5912;SDS011;2982;42.684;23.356;2023-04-09T07:50:05;8.30;;;7.38;;
5912;SDS011;2982;42.684;23.356;2023-04-09T07:52:31;7.13;;;6.47;;
5912;SDS011;2982;42.684;23.356;2023-04-09T07:54:56;9.50;;;8.70;;
5912;SDS011;2982;42.684;23.356;2023-04-09T07:57:21;8.27;;;7.65;;
5912;SDS011;2982;42.684;23.356;2023-04-09T07:59:47;9.02;;;8.32;;
5912;SDS011;2982;42.684;23.356;2023-04-09T08:02:12;9.60;;;8.63;;
5912;SDS011;2982;42.684;23.356;2023-04-09T08:04:38;10.38;;;9.35;;
5912;SDS011;2982;42.684;23.356;2023-04-09T08:07:03;8.88;;;8.07;;
5912;SDS011;2982;42.684;23.356;2023-04-09T08:09:29;9.93;;;9.02;;
5912;SDS011;2982;42.684;23.356;2023-04-09T08:11:54;9.43;;;8.63;;
5912;SDS011;2982;42.684;23.356;2023-04-09T08:14:19;9.77;;;8.88;;
5912;SDS011;2982;42.684;23.356;2023-04-09T08:16:45;9.75;;;8.90;;
5912;SDS011;2982;42.684;23.356;2023-04-09T08:19:11;9.43;;;8.63;;
5912;SDS011;2982;42.684;23.356;2023-04-09T08:21:38;13.52;;;10.73;;
5912;SDS011;2982;42.684;23.356;2023-04-09T08:24:04;11.57;;;10.05;;
5912;SDS011;2982;42.684;23.356;2023-04-09T08:26:30;10.43;;;9.43;;
5912;SDS011;2982;42.684;23.356;2023-04-09T08:28:56;8.98;;;8.18;;
5912;SDS011;2982;42.684;23.356;2023-04-09T08:31:21;9.65;;;8.65;;
5912;SDS011;2982;42.684;23.356;2023-04-09T08:33:46;10.25;;;9.35;;
5912;SDS011;2982;42.684;23.356;2023-04-09T08:36:12;10.05;;;9.23;;
5912;SDS011;2982;42.684;23.356;2023-04-09T08:38:37;9.13;;;8.32;;
5912;SDS011;2982;42.684;23.356;2023-04-09T08:41:02;8.82;;;8.18;;
5912;SDS011;2982;42.684;23.356;2023-04-09T08:43:28;9.80;;;8.50;;
5912;SDS011;2982;42.684;23.356;2023-04-09T08:45:56;8.88;;;8.00;;
5912;SDS011;2982;42.684;23.356;2023-04-09T08:48:21;9.32;;;8.43;;
5912;SDS011;2982;42.684;23.356;2023-04-09T08:50:48;10.18;;;9.18;;
5912;SDS011;2982;42.684;23.356;2023-04-09T08:53:13;9.35;;;8.52;;
5912;SDS011;2982;42.684;23.356;2023-04-09T08:55:43;10.15;;;9.10;;
5912;SDS011;2982;42.684;23.356;2023-04-09T08:58:09;9.98;;;9.05;;
5912;SDS011;2982;42.684;23.356;2023-04-09T09:00:35;10.23;;;9.27;;
5912;SDS011;2982;42.684;23.356;2023-04-09T09:03:08;9.18;;;8.32;;
5912;SDS011;2982;42.684;23.356;2023-04-09T09:05:37;10.85;;;9.80;;
5912;SDS011;2982;42.684;23.356;2023-04-09T09:08:07;9.25;;;8.35;;
5912;SDS011;2982;42.684;23.356;2023-04-09T09:10:37;9.73;;;8.82;;
5912;SDS011;2982;42.684;23.356;2023-04-09T09:15:44;9.93;;;9.05;;
5912;SDS011;2982;42.684;23.356;2023-04-09T09:18:09;10.00;;;9.10;;
5912;SDS011;2982;42.684;23.356;2023-04-09T09:20:35;10.10;;;9.13;;
5912;SDS011;2982;42.684;23.356;2023-04-09T09:23:01;11.63;;;10.38;;
5912;SDS011;2982;42.684;23.356;2023-04-09T09:25:26;10.90;;;9.93;;
5912;SDS011;2982;42.684;23.356;2023-04-09T09:27:52;10.98;;;10.00;;
5912;SDS011;2982;42.684;23.356;2023-04-09T09:30:21;20.45;;;9.57;;
5912;SDS011;2982;42.684;23.356;2023-04-09T09:33:04;10.13;;;9.23;;
5912;SDS011;2982;42.684;23.356;2023-04-09T09:35:45;10.32;;;9.00;;
5912;SDS011;2982;42.684;23.356;2023-04-09T09:38:14;10.98;;;9.95;;
5912;SDS011;2982;42.684;23.356;2023-04-09T09:40:40;9.25;;;8.43;;
5912;SDS011;2982;42.684;23.356;2023-04-09T09:43:05;9.75;;;8.93;;
5912;SDS011;2982;42.684;23.356;2023-04-09T09:45:30;9.27;;;8.52;;
5912;SDS011;2982;42.684;23.356;2023-04-09T09:47:56;9.25;;;8.27;;
5912;SDS011;2982;42.684;23.356;2023-04-09T09:50:22;10.10;;;9.18;;
5912;SDS011;2982;42.684;23.356;2023-04-09T09:52:48;9.68;;;8.88;;
5912;SDS011;2982;42.684;23.356;2023-04-09T09:55:16;8.88;;;8.18;;
5912;SDS011;2982;42.684;23.356;2023-04-09T09:57:43;9.15;;;8.55;;
5912;SDS011;2982;42.684;23.356;2023-04-09T10:00:11;10.02;;;9.18;;
5912;SDS011;2982;42.684;23.356;2023-04-09T10:02:46;10.82;;;9.93;;
5912;SDS011;2982;42.684;23.356;2023-04-09T10:05:17;8.35;;;7.45;;
5912;SDS011;2982;42.684;23.356;2023-04-09T10:07:43;7.80;;;7.30;;
5912;SDS011;2982;42.684;23.356;2023-04-09T10:10:09;8.50;;;7.80;;
5912;SDS011;2982;42.684;23.356;2023-04-09T10:12:34;7.97;;;7.18;;
5912;SDS011;2982;42.684;23.356;2023-04-09T10:15:00;8.23;;;7.63;;
5912;SDS011;2982;42.684;23.356;2023-04-09T10:17:26;7.63;;;7.03;;
5912;SDS011;2982;42.684;23.356;2023-04-09T10:19:57;8.02;;;7.38;;
5912;SDS011;2982;42.684;23.356;2023-04-09T10:22:39;7.50;;;7.00;;
5912;SDS011;2982;42.684;23.356;2023-04-09T10:25:08;8.80;;;8.20;;
5912;SDS011;2982;42.684;23.356;2023-04-09T10:27:34;7.57;;;7.07;;
5912;SDS011;2982;42.684;23.356;2023-04-09T10:30:00;6.97;;;6.47;;
5912;SDS011;2982;42.684;23.356;2023-04-09T10:32:25;7.25;;;6.65;;
5912;SDS011;2982;42.684;23.356;2023-04-09T10:34:51;8.65;;;7.85;;
5912;SDS011;2982;42.684;23.356;2023-04-09T10:37:20;6.60;;;6.00;;
5912;SDS011;2982;42.684;23.356;2023-04-09T10:39:47;7.28;;;6.68;;
5912;SDS011;2982;42.684;23.356;2023-04-09T10:42:13;7.30;;;6.80;;
5912;SDS011;2982;42.684;23.356;2023-04-09T10:44:42;7.10;;;6.55;;
5912;SDS011;2982;42.684;23.356;2023-04-09T10:47:08;6.63;;;6.20;;
5912;SDS011;2982;42.684;23.356;2023-04-09T10:49:35;6.63;;;6.22;;
5912;SDS011;2982;42.684;23.356;2023-04-09T10:59:32;7.43;;;6.80;;
5912;SDS011;2982;42.684;23.356;2023-04-09T11:01:58;7.03;;;6.53;;
5912;SDS011;2982;42.684;23.356;2023-04-09T11:04:23;6.28;;;5.88;;
5912;SDS011;2982;42.684;23.356;2023-04-09T11:07:04;6.93;;;6.45;;
5912;SDS011;2982;42.684;23.356;2023-04-09T11:09:33;7.88;;;7.18;;
5912;SDS011;2982;42.684;23.356;2023-04-09T11:11:59;6.55;;;6.05;;
5912;SDS011;2982;42.684;23.356;2023-04-09T11:14:24;6.95;;;6.45;;
5912;SDS011;2982;42.684;23.356;2023-04-09T11:16:50;6.43;;;5.55;;
5912;SDS011;2982;42.684;23.356;2023-04-09T11:19:15;7.28;;;6.63;;
5912;SDS011;2982;42.684;23.356;2023-04-09T11:21:41;6.47;;;6.07;;
5912;SDS011;2982;42.684;23.356;2023-04-09T11:24:06;7.53;;;7.03;;
5912;SDS011;2982;42.684;23.356;2023-04-09T11:26:35;6.88;;;6.25;;
5912;SDS011;2982;42.684;23.356;2023-04-09T11:29:04;7.85;;;7.15;;
5912;SDS011;2982;42.684;23.356;2023-04-09T11:31:29;7.78;;;7.18;;
5912;SDS011;2982;42.684;23.356;2023-04-09T11:33:55;7.45;;;6.95;;
5912;SDS011;2982;42.684;23.356;2023-04-09T11:36:20;6.53;;;6.13;;
5912;SDS011;2982;42.684;23.356;2023-04-09T11:38:47;6.88;;;6.38;;
5912;SDS011;2982;42.684;23.356;2023-04-09T11:41:12;6.78;;;6.28;;
5912;SDS011;2982;42.684;23.356;2023-04-09T11:43:37;7.38;;;6.80;;
5912;SDS011;2982;42.684;23.356;2023-04-09T11:46:03;6.90;;;6.50;;
5912;SDS011;2982;42.684;23.356;2023-04-09T11:48:29;6.57;;;6.18;;
5912;SDS011;2982;42.684;23.356;2023-04-09T11:50:55;5.40;;;5.00;;
5912;SDS011;2982;42.684;23.356;2023-04-09T11:53:21;5.78;;;5.38;;
5912;SDS011;2982;42.684;23.356;2023-04-09T11:55:48;9.30;;;5.40;;
5912;SDS011;2982;42.684;23.356;2023-04-09T11:58:15;9.73;;;5.93;;
5912;SDS011;2982;42.684;23.356;2023-04-09T12:00:40;5.68;;;5.20;;
5912;SDS011;2982;42.684;23.356;2023-04-09T12:03:05;4.57;;;4.20;;
5912;SDS011;2982;42.684;23.356;2023-04-09T12:05:32;4.55;;;4.20;;
5912;SDS011;2982;42.684;23.356;2023-04-09T12:07:59;5.07;;;4.55;;
5912;SDS011;2982;42.684;23.356;2023-04-09T12:10:27;3.67;;;3.47;;
5912;SDS011;2982;42.684;23.356;2023-04-09T12:12:53;3.85;;;3.65;;
5912;SDS011;2982;42.684;23.356;2023-04-09T12:15:20;4.15;;;3.85;;
5912;SDS011;2982;42.684;23.356;2023-04-09T12:17:55;3.80;;;3.53;;
5912;SDS011;2982;42.684;23.356;2023-04-09T12:20:34;3.97;;;3.78;;
5912;SDS011;2982;42.684;23.356;2023-04-09T12:23:11;4.50;;;4.20;;
5912;SDS011;2982;42.684;23.356;2023-04-09T12:25:38;5.20;;;4.47;;
5912;SDS011;2982;42.684;23.356;2023-04-09T12:28:05;4.63;;;4.32;;
5912;SDS011;2982;42.684;23.356;2023-04-09T12:30:32;5.65;;;5.25;;
5912;SDS011;2982;42.684;23.356;2023-04-09T12:32:58;6.45;;;5.35;;
5912;SDS011;2982;42.684;23.356;2023-04-09T12:35:23;4.10;;;3.80;;
5912;SDS011;2982;42.684;23.356;2023-04-09T12:37:49;3.60;;;3.30;;
5912;SDS011;2982;42.684;23.356;2023-04-09T12:40:15;3.50;;;3.30;;
5912;SDS011;2982;42.684;23.356;2023-04-09T12:42:41;4.18;;;3.90;;
5912;SDS011;2982;42.684;23.356;2023-04-09T12:45:08;4.18;;;3.97;;
5912;SDS011;2982;42.684;23.356;2023-04-09T12:47:35;4.90;;;4.55;;
5912;SDS011;2982;42.684;23.356;2023-04-09T12:50:00;4.40;;;4.10;;
5912;SDS011;2982;42.684;23.356;2023-04-09T12:52:27;3.88;;;3.67;;
5912;SDS011;2982;42.684;23.356;2023-04-09T12:54:52;4.68;;;4.38;;
5912;SDS011;2982;42.684;23.356;2023-04-09T12:57:17;3.97;;;3.67;;
5912;SDS011;2982;42.684;23.356;2023-04-09T12:59:42;4.75;;;4.32;;
5912;SDS011;2982;42.684;23.356;2023-04-09T13:02:09;5.15;;;4.85;;
5912;SDS011;2982;42.684;23.356;2023-04-09T13:04:35;4.78;;;4.47;;
5912;SDS011;2982;42.684;23.356;2023-04-09T13:07:00;4.65;;;4.35;;
5912;SDS011;2982;42.684;23.356;2023-04-09T13:09:25;5.72;;;5.32;;
5912;SDS011;2982;42.684;23.356;2023-04-09T13:11:50;5.32;;;4.97;;
5912;SDS011;2982;42.684;23.356;2023-04-09T13:14:16;5.25;;;4.85;;
5912;SDS011;2982;42.684;23.356;2023-04-09T13:16:41;5.15;;;4.75;;
5912;SDS011;2982;42.684;23.356;2023-04-09T13:19:07;4.32;;;3.92;;
5912;SDS011;2982;42.684;23.356;2023-04-09T13:21:33;4.10;;;3.80;;
5912;SDS011;2982;42.684;23.356;2023-04-09T13:23:58;4.75;;;4.45;;
5912;SDS011;2982;42.684;23.356;2023-04-09T13:26:23;4.50;;;4.20;;
5912;SDS011;2982;42.684;23.356;2023-04-09T13:28:49;4.20;;;3.97;;
5912;SDS011;2982;42.684;23.356;2023-04-09T13:31:14;4.00;;;3.80;;
5912;SDS011;2982;42.684;23.356;2023-04-09T13:33:39;5.38;;;3.83;;
5912;SDS011;2982;42.684;23.356;2023-04-09T13:36:05;4.35;;;4.13;;
5912;SDS011;2982;42.684;23.356;2023-04-09T13:38:30;5.15;;;4.85;;
5912;SDS011;2982;42.684;23.356;2023-04-09T13:40:55;5.85;;;5.25;;
5912;SDS011;2982;42.684;23.356;2023-04-09T13:43:21;5.45;;;5.00;;
5912;SDS011;2982;42.684;23.356;2023-04-09T13:45:46;5.43;;;5.03;;
5912;SDS011;2982;42.684;23.356;2023-04-09T13:48:11;5.97;;;5.10;;
5912;SDS011;2982;42.684;23.356;2023-04-09T13:50:36;5.07;;;4.70;;
5912;SDS011;2982;42.684;23.356;2023-04-09T13:53:02;4.07;;;3.88;;
5912;SDS011;2982;42.684;23.356;2023-04-09T13:55:27;4.72;;;4.30;;
5912;SDS011;2982;42.684;23.356;2023-04-09T13:57:53;5.22;;;4.85;;
5912;SDS011;2982;42.684;23.356;2023-04-09T14:00:20;4.50;;;4.10;;
5912;SDS011;2982;42.684;23.356;2023-04-09T14:02:45;3.70;;;3.50;;
5912;SDS011;2982;42.684;23.356;2023-04-09T14:05:10;4.70;;;4.40;;
5912;SDS011;2982;42.684;23.356;2023-04-09T14:07:36;4.85;;;4.55;;
5912;SDS011;2982;42.684;23.356;2023-04-09T14:10:01;5.07;;;4.68;;
5912;SDS011;2982;42.684;23.356;2023-04-09T14:12:26;5.50;;;5.10;;
5912;SDS011;2982;42.684;23.356;2023-04-09T14:14:51;6.13;;;5.70;;
5912;SDS011;2982;42.684;23.356;2023-04-09T14:17:17;4.85;;;4.53;;
5912;SDS011;2982;42.684;23.356;2023-04-09T14:19:42;4.75;;;4.45;;
5912;SDS011;2982;42.684;23.356;2023-04-09T14:22:07;5.20;;;4.90;;
5912;SDS011;2982;42.684;23.356;2023-04-09T14:24:33;5.47;;;5.18;;
5912;SDS011;2982;42.684;23.356;2023-04-09T14:26:58;6.28;;;5.88;;
5912;SDS011;2982;42.684;23.356;2023-04-09T14:29:23;5.93;;;5.20;;
5912;SDS011;2982;42.684;23.356;2023-04-09T14:31:49;5.60;;;5.10;;
5912;SDS011;2982;42.684;23.356;2023-04-09T14:34:14;5.25;;;4.95;;
5912;SDS011;2982;42.684;23.356;2023-04-09T14:36:39;4.70;;;4.40;;
5912;SDS011;2982;42.684;23.356;2023-04-09T14:39:04;5.68;;;5.28;;
5912;SDS011;2982;42.684;23.356;2023-04-09T14:41:30;4.78;;;4.47;;
5912;SDS011;2982;42.684;23.356;2023-04-09T14:43:55;5.75;;;5.10;;
5912;SDS011;2982;42.684;23.356;2023-04-09T14:46:20;5.57;;;5.18;;
5912;SDS011;2982;42.684;23.356;2023-04-09T14:48:46;5.88;;;5.38;;
5912;SDS011;2982;42.684;23.356;2023-04-09T14:51:11;5.28;;;4.88;;
5912;SDS011;2982;42.684;23.356;2023-04-09T14:53:36;5.68;;;5.28;;
5912;SDS011;2982;42.684;23.356;2023-04-09T14:56:02;5.40;;;5.05;;
5912;SDS011;2982;42.684;23.356;2023-04-09T14:58:28;5.53;;;4.93;;
5912;SDS011;2982;42.684;23.356;2023-04-09T15:00:53;6.03;;;5.57;;
5912;SDS011;2982;42.684;23.356;2023-04-09T15:03:18;5.90;;;5.55;;
5912;SDS011;2982;42.684;23.356;2023-04-09T15:05:43;6.13;;;5.72;;
5912;SDS011;2982;42.684;23.356;2023-04-09T15:08:09;6.18;;;5.75;;
5912;SDS011;2982;42.684;23.356;2023-04-09T15:10:37;6.38;;;5.80;;